»·PEaware :: ENY877 KOKC-KCOS

ENY877 :: KOKC-KCOS

FLIGHT INFORMATION

Flight Status: Arrived
Operator: Unknown
More flights by this operator :: More flights under this callsign
Pilot: Mitchell L. (19304)
Aircraft: EMBRAER EMB-170/175
(E170)
More flights by this aircraft type
Origin: KOKC Will Rogers World
United States
Destination: KCOS City Of Colorado Springs Mun
United States
More flights between these airports :: More routes between these airports
Route: STPHN3 ZEEWE ROLLS LBL LAA OZZZY4
File this flight plan on PilotEdge
Remarks:
Altitude:
(Current/Filed)
36,000ft
Speed:
(Current/Filed)
475kts
Departed: 04-Aug-18 09:40 AM
Arrived: 04-Aug-18 10:50 AM
Distance/Time
Traveled:
396nm/1:09
Distance/Time
To Go:
Arrived

Flight Plot

Page will automatically refresh every two minutes.

Flight plan parsing failed; only flown route is shown


Map Options




Map Legend


Flown Route
Filed Route
Departure Airport
Arrival Airport
Navaid (VOR, NDB)
Fix

Horizontal Profiles

Position Reports

Time Latitude Longitude Heading Altitude Ground
Speed
04-Aug-18 09:19 35.394841 -97.598919 0 1298ft 0kts
04-Aug-18 09:20 35.394841 -97.598919 0 1298ft 0kts
04-Aug-18 09:21 35.394841 -97.598919 0 1298ft 0kts
04-Aug-18 09:22 35.394841 -97.598919 0 1298ft 0kts
04-Aug-18 09:23 35.394841 -97.598919 0 1298ft 0kts
04-Aug-18 09:24 35.394841 -97.598919 0 1298ft 0kts
04-Aug-18 09:25 35.394841 -97.598919 0 1298ft 0kts
04-Aug-18 09:26 35.394841 -97.598919 0 1298ft 0kts
04-Aug-18 09:27 35.394841 -97.598919 0 1298ft 0kts
04-Aug-18 09:28 35.394841 -97.598919 0 1298ft 0kts
04-Aug-18 09:29 35.394841 -97.598919 0 1298ft 0kts
04-Aug-18 09:30 35.394841 -97.598919 0 1298ft 0kts
04-Aug-18 09:31 35.394841 -97.598919 0 1298ft 0kts
04-Aug-18 09:32 35.394841 -97.598919 0 1298ft 0kts
04-Aug-18 09:33 35.394841 -97.598919 0 1298ft 0kts
04-Aug-18 09:34 35.394842 -97.598919 0 1298ft 0kts
04-Aug-18 09:35 35.394575 -97.598898 335 1298ft 2kts
04-Aug-18 09:36 35.394427 -97.598702 290 1298ft 0kts
04-Aug-18 09:37 35.394442 -97.598747 290 1298ft 1kts
04-Aug-18 09:38 35.395428 -97.602352 314 1298ft 23kts
04-Aug-18 09:39 35.400008 -97.604015 358 1298ft 25kts
04-Aug-18 09:40 35.405807 -97.605135 268 1298ft 0kts
04-Aug-18 09:41 35.398415 -97.605769 179 1298ft 127kts
04-Aug-18 09:42 35.345713 -97.604021 179 3704ft 237kts
04-Aug-18 09:43 35.283461 -97.623782 238 5325ft 257kts
04-Aug-18 09:44 35.300459 -97.710774 293 8466ft 289kts
04-Aug-18 09:45 35.336921 -97.799862 293 11469ft 300kts
04-Aug-18 09:46 35.375058 -97.893417 293 14475ft 321kts
04-Aug-18 09:47 35.417138 -97.996536 294 17018ft 356kts
04-Aug-18 09:48 35.462993 -98.108985 294 19595ft 380kts
04-Aug-18 09:49 35.485392 -98.235089 272 22113ft 387kts
04-Aug-18 09:50 35.494558 -98.367637 274 24434ft 393kts
04-Aug-18 09:51 35.506375 -98.501632 275 26414ft 398kts
04-Aug-18 09:52 35.518427 -98.638069 275 27942ft 407kts
04-Aug-18 09:53 35.530087 -98.774943 275 29310ft 414kts
04-Aug-18 09:54 35.542085 -98.915889 275 30540ft 420kts
04-Aug-18 09:55 35.554260 -99.059876 274 31730ft 424kts
04-Aug-18 09:56 35.580497 -99.199840 295 32732ft 431kts
04-Aug-18 09:57 35.644549 -99.321181 303 33710ft 434kts
04-Aug-18 09:58 35.711616 -99.447218 300 34712ft 433kts
04-Aug-18 09:59 35.792924 -99.555333 317 35695ft 435kts
04-Aug-18 10:00 35.886089 -99.653515 316 36084ft 458kts
04-Aug-18 10:01 35.980918 -99.758637 315 36063ft 466kts
04-Aug-18 10:02 36.078054 -99.868375 315 36053ft 468kts
04-Aug-18 10:03 36.173188 -99.974476 316 36051ft 460kts
04-Aug-18 10:04 36.267867 -100.080193 315 36054ft 460kts
04-Aug-18 10:05 36.362041 -100.186800 316 36039ft 460kts
04-Aug-18 10:06 36.456257 -100.293966 316 36043ft 459kts
04-Aug-18 10:07 36.549266 -100.400028 316 36044ft 459kts
04-Aug-18 10:08 36.643884 -100.508234 316 36044ft 459kts
04-Aug-18 10:09 36.737737 -100.615982 316 36045ft 459kts
04-Aug-18 10:10 36.830994 -100.724148 315 36052ft 459kts
04-Aug-18 10:11 36.924270 -100.832781 315 36059ft 459kts
04-Aug-18 10:12 37.016848 -100.939746 316 36050ft 445kts
04-Aug-18 10:13 37.099825 -101.047963 310 36046ft 422kts
04-Aug-18 10:14 37.174059 -101.158281 310 36050ft 406kts
04-Aug-18 10:15 37.245883 -101.263732 310 36050ft 392kts
04-Aug-18 10:16 37.315492 -101.365747 310 36046ft 379kts
04-Aug-18 10:17 37.386117 -101.469550 310 36052ft 408kts
04-Aug-18 10:18 37.459025 -101.577090 310 36047ft 410kts
04-Aug-18 10:19 37.533190 -101.687115 309 36037ft 413kts
04-Aug-18 10:20 37.606832 -101.797714 309 35937ft 415kts
04-Aug-18 10:21 37.681367 -101.909102 310 34925ft 412kts
04-Aug-18 10:22 37.754484 -102.018390 310 33908ft 405kts
04-Aug-18 10:23 37.826365 -102.126182 310 32888ft 399kts
04-Aug-18 10:24 37.897972 -102.233926 310 31902ft 415kts
04-Aug-18 10:25 37.971923 -102.345568 310 30873ft 410kts
04-Aug-18 10:26 38.044570 -102.455711 310 29834ft 406kts
04-Aug-18 10:27 38.116374 -102.564678 311 28798ft 400kts
04-Aug-18 10:28 38.187098 -102.671371 310 28073ft 393kts
04-Aug-18 10:29 38.257942 -102.778130 311 28066ft 397kts
04-Aug-18 10:30 38.329822 -102.884977 311 27084ft 395kts
04-Aug-18 10:31 38.399813 -102.989566 311 25577ft 385kts
04-Aug-18 10:32 38.468232 -103.092214 312 24150ft 379kts
04-Aug-18 10:33 38.536362 -103.194688 313 22741ft 377kts
04-Aug-18 10:34 38.603695 -103.296285 313 21337ft 374kts
04-Aug-18 10:35 38.670245 -103.397036 313 19931ft 370kts
04-Aug-18 10:36 38.736327 -103.497396 312 18520ft 366kts
04-Aug-18 10:37 38.800966 -103.596353 307 17242ft 362kts
04-Aug-18 10:38 38.828295 -103.721013 280 16207ft 366kts
04-Aug-18 10:39 38.844184 -103.849094 280 15195ft 361kts
04-Aug-18 10:40 38.861219 -103.974786 281 14189ft 355kts
04-Aug-18 10:41 38.877606 -104.098726 280 14016ft 354kts
04-Aug-18 10:42 38.892109 -104.214427 280 14044ft 314kts
04-Aug-18 10:43 38.906439 -104.326044 280 12622ft 312kts
04-Aug-18 10:44 38.920860 -104.433544 281 11113ft 301kts
04-Aug-18 10:45 38.934722 -104.536441 281 9560ft 274kts
04-Aug-18 10:46 38.946540 -104.624270 281 9096ft 237kts
04-Aug-18 10:47 38.926709 -104.682750 183 8681ft 217kts
04-Aug-18 10:48 38.872803 -104.685319 184 7917ft 184kts
04-Aug-18 10:49 38.823333 -104.685361 183 6399ft 171kts
04-Aug-18 10:50 38.795174 -104.685823 183 6206ft 60kts
04-Aug-18 10:51 38.793190 -104.687908 358 6206ft 13kts
04-Aug-18 10:52 38.797262 -104.687878 0 6206ft 17kts
04-Aug-18 10:53 38.802584 -104.688044 325 6206ft 15kts
04-Aug-18 10:54 38.802770 -104.694308 268 6206ft 20kts
04-Aug-18 10:55 38.800835 -104.697463 230 6206ft 15kts
04-Aug-18 10:56 38.798661 -104.699342 198 6206ft 8kts
04-Aug-18 10:57 38.798444 -104.700251 264 6206ft 0kts
04-Aug-18 10:58 38.798444 -104.700251 264 6206ft 0kts
04-Aug-18 10:59 38.798444 -104.700251 264 6206ft 0kts
04-Aug-18 11:00 38.798444 -104.700251 264 6206ft 0kts
04-Aug-18 11:01 38.798444 -104.700251 264 6206ft 0kts
04-Aug-18 11:02 38.798444 -104.700251 264 6206ft 0kts
04-Aug-18 11:03 38.798444 -104.700251 264 6206ft 0kts
04-Aug-18 11:04 38.798444 -104.700251 264 6206ft 0kts
04-Aug-18 11:05 38.798444 -104.700251 264 6206ft 0kts

Navigation Log

Ident Type
Flight plan parsing failed, navigation log unavailable